createdAt,value
2022-11-07T00:01:27.321Z,3.92
2022-11-07T00:08:21.307Z,3.92
2022-11-07T00:13:31.739Z,3.9
2022-11-07T00:18:41.474Z,3.88
2022-11-07T00:23:49.948Z,3.88
2022-11-07T00:29:00.347Z,3.88
2022-11-07T00:34:10.103Z,3.88
2022-11-07T00:39:19.883Z,3.9
2022-11-07T00:44:35.770Z,3.9
2022-11-07T00:49:52.127Z,3.88
2022-11-07T00:55:09.566Z,3.88
2022-11-07T01:00:28.293Z,3.87
2022-11-07T01:05:45.839Z,3.87
2022-11-07T01:11:03.964Z,3.88
2022-11-07T01:16:21.435Z,3.88
2022-11-07T01:21:37.401Z,3.86
2022-11-07T01:26:06.286Z,3.86
2022-11-07T01:30:49.848Z,3.88
2022-11-07T01:36:06.558Z,3.88
2022-11-07T01:41:08.035Z,3.88
2022-11-07T01:46:16.504Z,3.88
2022-11-07T01:51:25.624Z,3.88
2022-11-07T01:56:34.106Z,3.88
2022-11-07T02:01:44.667Z,3.88
2022-11-07T02:06:53.634Z,3.88
2022-11-07T02:12:02.113Z,3.87
2022-11-07T02:17:11.874Z,3.87
2022-11-07T02:22:20.986Z,3.87
2022-11-07T02:27:30.105Z,3.87
2022-11-07T02:32:38.611Z,3.85
2022-11-07T02:37:47.729Z,3.85
2022-11-07T02:42:56.181Z,3.87
2022-11-07T02:48:04.031Z,3.87
2022-11-07T02:53:15.559Z,3.87
2022-11-07T02:58:32.764Z,3.87
2022-11-07T03:03:50.207Z,3.83
2022-11-07T03:09:06.203Z,3.83
2022-11-07T03:14:23.695Z,3.88
2022-11-07T03:19:43.008Z,3.88
2022-11-07T03:25:00.097Z,3.86
2022-11-07T03:30:15.969Z,3.84
2022-11-07T03:35:32.767Z,3.84
2022-11-07T03:40:50.204Z,3.87
2022-11-07T03:46:07.704Z,3.87
2022-11-07T03:51:25.947Z,3.87
2022-11-07T03:56:43.168Z,3.87
2022-11-07T04:02:01.616Z,3.85
2022-11-07T04:07:18.851Z,3.85
2022-11-07T04:11:47.406Z,3.86
2022-11-07T04:16:17.504Z,3.86
2022-11-07T04:21:32.926Z,3.84
2022-11-07T04:25:56.695Z,3.84
2022-11-07T04:31:05.839Z,3.87
2022-11-07T04:36:14.272Z,3.87
2022-11-07T04:41:24.694Z,3.87
2022-11-07T04:46:33.170Z,3.87
2022-11-07T04:51:41.633Z,3.87
2022-11-07T04:56:51.432Z,3.87
2022-11-07T05:02:01.058Z,3.86
2022-11-07T05:07:08.998Z,3.86
2022-11-07T05:12:18.170Z,3.87
2022-11-07T05:17:28.415Z,3.87
2022-11-07T05:22:36.364Z,3.87
2022-11-07T05:27:45.456Z,3.87
2022-11-07T05:32:54.608Z,3.86
2022-11-07T05:38:03.736Z,3.86
2022-11-07T05:43:13.925Z,3.88
2022-11-07T05:48:21.948Z,3.88
2022-11-07T05:53:30.961Z,3.9
2022-11-07T05:58:43.973Z,3.9
2022-11-07T06:04:01.693Z,3.89
2022-11-07T06:09:17.655Z,3.89
2022-11-07T06:14:34.760Z,3.9
2022-11-07T06:19:51.169Z,3.9
2022-11-07T06:25:08.767Z,3.86
2022-11-07T06:30:24.849Z,3.86
2022-11-07T06:35:41.560Z,3.88
2022-11-07T06:40:57.283Z,3.87
2022-11-07T06:46:13.886Z,3.87
2022-11-07T06:50:39.693Z,3.87
2022-11-07T06:55:21.791Z,3.87
2022-11-07T07:00:32.474Z,3.91
2022-11-07T07:05:40.675Z,3.91
2022-11-07T07:10:50.433Z,3.9
2022-11-07T07:15:59.550Z,3.9
2022-11-07T07:21:09.336Z,3.93
2022-11-07T07:26:20.943Z,3.93
2022-11-07T07:31:35.856Z,3.92
2022-11-07T07:36:51.335Z,3.92
2022-11-07T07:42:07.491Z,3.96
2022-11-07T07:47:23.091Z,3.96
2022-11-07T07:52:39.185Z,3.95
2022-11-07T07:57:54.059Z,3.95
2022-11-07T08:03:15.552Z,3.97
2022-11-07T08:08:23.827Z,3.97
2022-11-07T08:13:40.017Z,3.93
2022-11-07T08:18:56.152Z,3.93
2022-11-07T08:24:11.031Z,3.94
2022-11-07T08:28:36.543Z,3.94
2022-11-07T08:33:19.034Z,3.99
2022-11-07T08:38:26.127Z,3.99
2022-11-07T08:43:36.519Z,4
2022-11-07T08:48:46.279Z,4
2022-11-07T08:53:56.059Z,3.95
2022-11-07T08:59:05.816Z,3.95
2022-11-07T09:04:23.033Z,4
2022-11-07T09:09:24.667Z,4
2022-11-07T09:15:49.484Z,4
2022-11-07T09:20:10.339Z,4
2022-11-07T09:24:51.415Z,3.97
2022-11-07T09:30:00.502Z,3.97
2022-11-07T09:35:10.490Z,4.02
2022-11-07T09:40:25.717Z,4.05
2022-11-07T09:45:44.337Z,4.05
2022-11-07T09:50:58.048Z,4.03
2022-11-07T09:56:15.671Z,4.03
2022-11-07T10:01:32.588Z,4.04
2022-11-07T10:06:49.247Z,4.04
2022-11-07T10:12:06.037Z,4.02
2022-11-07T10:17:21.450Z,4.02
2022-11-07T10:22:58.119Z,4.04
2022-11-07T10:27:05.652Z,4.04
2022-11-07T10:31:51.242Z,4.05
2022-11-07T10:37:06.122Z,4.05
2022-11-07T10:42:17.785Z,4.03
2022-11-07T10:47:26.283Z,4.03
2022-11-07T10:52:35.642Z,4.04
2022-11-07T10:57:44.515Z,4.04
2022-11-07T11:02:53.632Z,4.02
2022-11-07T11:08:02.771Z,4.02
2022-11-07T11:13:11.217Z,4.04
2022-11-07T11:18:20.644Z,4.04
2022-11-07T11:22:40.865Z,4.03
2022-11-07T11:23:17.090Z,4.03
2022-11-07T11:27:56.999Z,4.03
2022-11-07T11:28:34.497Z,4.03
2022-11-07T11:33:15.049Z,4.05
2022-11-07T11:33:50.653Z,4.05
2022-11-07T11:38:33.157Z,4.05
2022-11-07T11:39:06.769Z,4.05
2022-11-07T11:43:49.314Z,4.04
2022-11-07T11:44:22.125Z,4.04
2022-11-07T11:51:37.162Z,4.04
2022-11-07T11:52:27.167Z,4.04
2022-11-07T11:56:23.876Z,4.06
2022-11-07T11:56:53.826Z,4.06
2022-11-07T12:01:40.034Z,4.03
2022-11-07T12:02:10.006Z,4.03
2022-11-07T12:06:56.273Z,4.03
2022-11-07T12:09:18.434Z,4.03
2022-11-07T12:14:34.064Z,4.05
2022-11-07T12:15:24.068Z,4.05
2022-11-07T12:19:49.907Z,4.05
2022-11-07T12:20:39.906Z,4.05
2022-11-07T12:25:05.431Z,4.07
2022-11-07T12:25:55.427Z,4.07
2022-11-07T12:30:20.307Z,4.07
2022-11-07T12:31:10.303Z,4.07
2022-11-07T12:35:36.475Z,4.08
2022-11-07T12:36:26.468Z,4.08
2022-11-07T12:40:52.629Z,4.08
2022-11-07T12:41:42.634Z,4.08
2022-11-07T12:46:08.226Z,4
2022-11-07T12:46:58.228Z,4
2022-11-07T12:51:23.020Z,4
2022-11-07T12:53:03.027Z,4
2022-11-07T12:56:39.186Z,4.07
2022-11-07T13:03:36.634Z,4.04
2022-11-07T13:04:27.222Z,4.04
2022-11-07T13:09:22.755Z,4.04
2022-11-07T13:09:52.711Z,4.04
2022-11-07T13:14:40.208Z,4.04
2022-11-07T13:15:27.611Z,4.04
2022-11-07T13:20:25.160Z,4.04
2022-11-07T13:29:54.860Z,4.04
2022-11-07T13:35:11.661Z,4.07
2022-11-07T13:36:01.664Z,4.07
2022-11-07T13:40:26.543Z,4.07
2022-11-07T13:41:16.540Z,4.07
2022-11-07T13:45:42.099Z,4.06
2022-11-07T13:46:32.069Z,4.06
2022-11-07T13:50:58.874Z,4.06
2022-11-07T13:56:14.099Z,4.04
2022-11-07T13:57:23.920Z,4.04
2022-11-07T14:02:19.420Z,4.02
2022-11-07T14:02:48.753Z,4.02
2022-11-07T14:07:35.860Z,4.02
2022-11-07T14:08:46.369Z,4.02
2022-11-07T14:13:55.402Z,4.02
2022-11-07T14:14:25.336Z,4.02
2022-11-07T14:19:12.191Z,4.02
2022-11-07T14:19:42.146Z,4.02
2022-11-07T14:24:27.721Z,4.04
2022-11-07T14:24:57.660Z,4.04
2022-11-07T14:29:43.864Z,4.04
2022-11-07T14:30:13.816Z,4.04
2022-11-07T14:35:00.659Z,4
2022-11-07T14:41:57.271Z,4
2022-11-07T14:42:47.267Z,4
2022-11-07T14:47:32.100Z,4
2022-11-07T14:48:22.094Z,4
2022-11-07T14:52:32.091Z,4
2022-11-07T14:54:12.095Z,4
2022-11-07T14:57:45.107Z,4
2022-11-07T14:59:25.112Z,4
2022-11-07T15:03:01.410Z,4
2022-11-07T15:04:41.415Z,4
2022-11-07T15:08:17.820Z,4
2022-11-07T15:09:57.451Z,4
2022-11-07T15:13:32.938Z,3.99
2022-11-07T15:14:22.941Z,3.99
2022-11-07T15:18:48.497Z,3.99
2022-11-07T15:19:38.503Z,3.99
2022-11-07T15:24:03.353Z,4
2022-11-07T15:24:53.336Z,4
2022-11-07T15:29:18.257Z,4
2022-11-07T15:30:08.261Z,4
2022-11-07T15:35:44.963Z,3.98
2022-11-07T15:35:47.436Z,3.98
2022-11-07T15:39:51.184Z,3.98
2022-11-07T15:40:41.185Z,3.98
2022-11-07T15:45:07.337Z,3.99
2022-11-07T15:45:57.346Z,3.99
2022-11-07T15:50:22.252Z,3.99
2022-11-07T15:51:12.250Z,3.99
2022-11-07T15:55:39.687Z,4
2022-11-07T15:56:29.695Z,4
2022-11-07T16:00:54.538Z,4
2022-11-07T16:01:44.703Z,4
2022-11-07T16:06:10.717Z,4
2022-11-07T16:08:40.715Z,4
2022-11-07T16:13:06.229Z,4
2022-11-07T16:18:21.108Z,4
2022-11-07T16:19:11.107Z,4
2022-11-07T16:23:36.652Z,3.99
2022-11-07T16:24:26.657Z,3.99
2022-11-07T16:29:28.552Z,3.99
2022-11-07T16:30:31.980Z,3.99
2022-11-07T16:35:41.621Z,3.97
2022-11-07T16:37:51.583Z,3.97
2022-11-07T16:42:59.388Z,4.02
2022-11-07T16:43:49.380Z,4.02
2022-11-07T16:48:15.249Z,4.02
2022-11-07T16:49:04.863Z,4.02
2022-11-07T16:53:31.055Z,4
2022-11-07T16:54:21.049Z,4
2022-11-07T16:58:45.902Z,4
2022-11-07T16:59:35.898Z,4
2022-11-07T17:04:01.540Z,3.98
2022-11-07T17:04:51.597Z,3.98
2022-11-07T17:09:17.581Z,3.98
2022-11-07T17:10:07.586Z,3.98
2022-11-07T17:14:33.107Z,3.99
2022-11-07T17:15:23.111Z,3.99
2022-11-07T17:19:50.552Z,3.99
2022-11-07T17:20:52.036Z,3.99
2022-11-07T17:25:06.099Z,3.99
2022-11-07T17:25:56.097Z,3.99
2022-11-07T17:30:22.227Z,3.99
2022-11-07T17:32:52.227Z,3.99
2022-11-07T17:37:32.366Z,4.01
2022-11-07T17:38:22.368Z,4.01
2022-11-07T17:42:51.165Z,4.02
2022-11-07T17:43:41.166Z,4.02
2022-11-07T17:48:10.397Z,4.02
2022-11-07T17:49:00.424Z,4.02
2022-11-07T17:53:26.527Z,4.01
2022-11-07T17:54:16.534Z,4.01
2022-11-07T17:58:42.075Z,4.01
2022-11-07T17:59:32.075Z,4.01
2022-11-07T18:03:59.254Z,4
2022-11-07T18:04:49.255Z,4
2022-11-07T18:09:16.268Z,4
2022-11-07T18:10:06.279Z,4
2022-11-07T18:14:33.968Z,3.97
2022-11-07T18:16:18.291Z,3.97
2022-11-07T18:21:28.507Z,3.97
2022-11-07T18:22:48.462Z,3.97
2022-11-07T18:26:46.660Z,4
2022-11-07T18:33:26.590Z,4.03
2022-11-07T18:41:44.506Z,4.03
2022-11-07T18:49:13.107Z,4.05
2022-11-07T18:53:39.912Z,4.02
2022-11-07T18:58:19.960Z,4.02
2022-11-07T19:03:30.108Z,4.02
2022-11-07T19:08:38.628Z,4.02
2022-11-07T19:13:47.717Z,4.02
2022-11-07T19:18:56.211Z,4.02
2022-11-07T19:24:05.955Z,4
2022-11-07T19:29:15.052Z,4
2022-11-07T19:34:24.176Z,4
2022-11-07T19:39:32.666Z,4
2022-11-07T19:44:56.927Z,4.03
2022-11-07T19:49:50.936Z,4.03
2022-11-07T19:55:01.973Z,4.01
2022-11-07T20:00:13.713Z,4.01
2022-11-07T20:05:31.186Z,4.02
2022-11-07T20:10:47.809Z,4.02
2022-11-07T20:16:04.265Z,4.01
2022-11-07T20:21:24.596Z,4.01
2022-11-07T20:26:37.562Z,4.04
2022-11-07T20:31:54.534Z,4.04
2022-11-07T20:37:11.809Z,3.99
2022-11-07T20:42:29.409Z,3.99
2022-11-07T20:47:47.005Z,4
2022-11-07T20:52:14.288Z,4
2022-11-07T20:56:53.978Z,4
2022-11-07T21:02:04.683Z,4
2022-11-07T21:07:10.909Z,3.99
2022-11-07T21:12:19.589Z,3.99
2022-11-07T21:17:27.884Z,3.98
2022-11-07T21:22:36.357Z,3.98
2022-11-07T21:27:46.756Z,3.99
2022-11-07T21:32:55.238Z,3.99
2022-11-07T21:38:03.737Z,3.96
2022-11-07T21:43:11.561Z,4.01
2022-11-07T21:48:20.024Z,4.01
2022-11-07T21:53:35.328Z,3.98
2022-11-07T21:58:47.187Z,3.98
2022-11-07T22:04:12.318Z,4
2022-11-07T22:09:18.876Z,4
2022-11-07T22:14:35.544Z,3.99
2022-11-07T22:19:51.819Z,3.99
2022-11-07T22:25:06.852Z,3.99
2022-11-07T22:30:22.228Z,3.99
2022-11-07T22:35:37.766Z,3.98
2022-11-07T22:40:52.625Z,3.98
2022-11-07T22:46:07.532Z,3.99
2022-11-07T22:51:22.400Z,3.99
2022-11-07T22:55:47.901Z,3.99
2022-11-07T23:00:27.068Z,3.99
2022-11-07T23:05:37.470Z,4.02
2022-11-07T23:10:47.930Z,4.02
2022-11-07T23:15:57.635Z,3.99
2022-11-07T23:21:06.175Z,3.99
2022-11-07T23:26:15.907Z,4.02
2022-11-07T23:31:27.490Z,4.02
2022-11-07T23:36:45.122Z,4.02
2022-11-07T23:42:02.525Z,4.02
2022-11-07T23:47:18.683Z,4.04
2022-11-07T23:52:36.625Z,4.04
2022-11-07T23:57:52.925Z,4
